sensor_id;sensor_type;location;lat;lon;timestamp;pressure;altitude;pressure_sealevel;temperature;humidity
60240;BME280;46102;39.012;-7.064;2023-06-10T00:00:11;98310.81;;;19.68;70.61
60240;BME280;46102;39.012;-7.064;2023-06-10T00:02:16;98305.31;;;19.71;71.17
60240;BME280;46102;39.012;-7.064;2023-06-10T00:04:17;98303.63;;;19.63;71.61
60240;BME280;46102;39.012;-7.064;2023-06-10T00:06:18;98313.53;;;19.61;71.90
60240;BME280;46102;39.012;-7.064;2023-06-10T00:08:19;98312.75;;;19.60;72.02
60240;BME280;46102;39.012;-7.064;2023-06-10T00:10:20;98315.53;;;19.60;72.29
60240;BME280;46102;39.012;-7.064;2023-06-10T00:12:21;98313.53;;;19.61;72.51
60240;BME280;46102;39.012;-7.064;2023-06-10T00:14:21;98313.53;;;19.61;72.92
60240;BME280;46102;39.012;-7.064;2023-06-10T00:16:22;98318.69;;;19.59;73.06
60240;BME280;46102;39.012;-7.064;2023-06-10T00:18:23;98323.44;;;19.54;73.24
60240;BME280;46102;39.012;-7.064;2023-06-10T00:20:24;98324.28;;;19.62;73.75
60240;BME280;46102;39.012;-7.064;2023-06-10T00:22:25;98323.84;;;19.56;74.18
60240;BME280;46102;39.012;-7.064;2023-06-10T00:24:29;98321.41;;;19.51;74.92
60240;BME280;46102;39.012;-7.064;2023-06-10T00:26:31;98319.75;;;19.43;75.02
60240;BME280;46102;39.012;-7.064;2023-06-10T00:28:32;98314.56;;;19.42;75.45
60240;BME280;46102;39.012;-7.064;2023-06-10T00:30:33;98318.91;;;19.39;75.66
60240;BME280;46102;39.012;-7.064;2023-06-10T00:32:34;98323.63;;;19.35;76.00
60240;BME280;46102;39.012;-7.064;2023-06-10T00:34:36;98320.44;;;19.33;76.43
60240;BME280;46102;39.012;-7.064;2023-06-10T00:36:37;98316.06;;;19.32;76.77
60240;BME280;46102;39.012;-7.064;2023-06-10T00:38:38;98317.22;;;19.31;76.99
60240;BME280;46102;39.012;-7.064;2023-06-10T00:40:41;98313.28;;;19.32;77.09
60240;BME280;46102;39.012;-7.064;2023-06-10T00:42:42;98312.47;;;19.31;77.16
60240;BME280;46102;39.012;-7.064;2023-06-10T00:44:43;98312.03;;;19.29;77.55
60240;BME280;46102;39.012;-7.064;2023-06-10T00:46:44;98313.66;;;19.30;77.17
60240;BME280;46102;39.012;-7.064;2023-06-10T00:48:46;98315.63;;;19.30;76.93
60240;BME280;46102;39.012;-7.064;2023-06-10T00:50:47;98313.59;;;19.23;77.25
60240;BME280;46102;39.012;-7.064;2023-06-10T00:52:49;98311.97;;;19.22;77.07
60240;BME280;46102;39.012;-7.064;2023-06-10T00:54:51;98316.38;;;19.23;77.17
60240;BME280;46102;39.012;-7.064;2023-06-10T00:56:53;98319.50;;;19.22;77.51
60240;BME280;46102;39.012;-7.064;2023-06-10T00:58:54;98318.28;;;19.19;77.52
60240;BME280;46102;39.012;-7.064;2023-06-10T01:00:55;98304.41;;;19.19;77.52
60240;BME280;46102;39.012;-7.064;2023-06-10T01:02:56;98313.91;;;19.18;77.53
60240;BME280;46102;39.012;-7.064;2023-06-10T01:04:57;98306.34;;;19.15;77.80
60240;BME280;46102;39.012;-7.064;2023-06-10T01:07:10;98309.88;;;19.12;77.81
60240;BME280;46102;39.012;-7.064;2023-06-10T01:11:27;98312.66;;;19.12;78.04
60240;BME280;46102;39.012;-7.064;2023-06-10T01:13:29;98311.03;;;19.07;78.14
60240;BME280;46102;39.012;-7.064;2023-06-10T01:15:33;98300.66;;;19.04;78.52
60240;BME280;46102;39.012;-7.064;2023-06-10T01:17:52;98299.84;;;19.04;78.64
60240;BME280;46102;39.012;-7.064;2023-06-10T01:19:57;98295.44;;;18.99;79.02
60240;BME280;46102;39.012;-7.064;2023-06-10T01:21:58;98294.63;;;18.99;79.03
60240;BME280;46102;39.012;-7.064;2023-06-10T01:24:01;98289.81;;;18.96;79.22
60240;BME280;46102;39.012;-7.064;2023-06-10T01:26:09;98285.44;;;18.95;79.50
60240;BME280;46102;39.012;-7.064;2023-06-10T01:28:19;98286.63;;;18.93;79.60
60240;BME280;46102;39.012;-7.064;2023-06-10T01:30:27;98290.59;;;18.92;79.77
60240;BME280;46102;39.012;-7.064;2023-06-10T01:32:34;98289.41;;;18.93;79.75
60240;BME280;46102;39.012;-7.064;2023-06-10T01:34:39;98290.59;;;18.92;79.81
60240;BME280;46102;39.012;-7.064;2023-06-10T01:36:47;98289.38;;;18.90;80.22
60240;BME280;46102;39.012;-7.064;2023-06-10T01:38:50;98282.63;;;18.91;80.19
60240;BME280;46102;39.012;-7.064;2023-06-10T01:40:53;98281.81;;;18.90;80.26
60240;BME280;46102;39.012;-7.064;2023-06-10T01:42:54;98284.97;;;18.89;80.44
60240;BME280;46102;39.012;-7.064;2023-06-10T01:44:55;98293.28;;;18.85;80.60
60240;BME280;46102;39.012;-7.064;2023-06-10T01:46:56;98293.66;;;18.84;80.92
60240;BME280;46102;39.012;-7.064;2023-06-10T01:48:56;98286.50;;;18.83;80.91
60240;BME280;46102;39.012;-7.064;2023-06-10T01:50:57;98298.00;;;18.81;80.95
60240;BME280;46102;39.012;-7.064;2023-06-10T01:52:59;98293.63;;;18.80;81.19
60240;BME280;46102;39.012;-7.064;2023-06-10T01:55:01;98292.00;;;18.79;81.09
60240;BME280;46102;39.012;-7.064;2023-06-10T01:57:02;98286.41;;;18.76;81.16
60240;BME280;46102;39.012;-7.064;2023-06-10T01:59:03;98287.13;;;18.72;81.42
60240;BME280;46102;39.012;-7.064;2023-06-10T02:01:04;98293.88;;;18.71;81.43
60240;BME280;46102;39.012;-7.064;2023-06-10T02:03:05;98297.41;;;18.68;81.56
60240;BME280;46102;39.012;-7.064;2023-06-10T02:05:06;98292.25;;;18.67;81.72
60240;BME280;46102;39.012;-7.064;2023-06-10T02:07:07;98292.56;;;18.62;82.03
60240;BME280;46102;39.012;-7.064;2023-06-10T02:09:07;98284.97;;;18.59;82.07
60240;BME280;46102;39.012;-7.064;2023-06-10T02:11:08;98298.03;;;18.55;82.22
60240;BME280;46102;39.012;-7.064;2023-06-10T02:13:09;98286.91;;;18.55;82.40
60240;BME280;46102;39.012;-7.064;2023-06-10T02:15:10;98286.44;;;18.49;82.65
60240;BME280;46102;39.012;-7.064;2023-06-10T02:17:10;98289.97;;;18.46;82.87
60240;BME280;46102;39.012;-7.064;2023-06-10T02:19:16;98284.41;;;18.46;83.10
60240;BME280;46102;39.012;-7.064;2023-06-10T02:21:17;98284.84;;;18.48;82.97
60240;BME280;46102;39.012;-7.064;2023-06-10T02:23:18;98290.78;;;18.46;83.11
60240;BME280;46102;39.012;-7.064;2023-06-10T02:25:19;98286.38;;;18.45;83.00
60240;BME280;46102;39.012;-7.064;2023-06-10T02:27:20;98290.81;;;18.50;83.17
60240;BME280;46102;39.012;-7.064;2023-06-10T02:29:21;98294.28;;;18.43;83.46
60240;BME280;46102;39.012;-7.064;2023-06-10T02:31:22;98289.06;;;18.38;83.69
60240;BME280;46102;39.012;-7.064;2023-06-10T02:33:24;98283.88;;;18.37;83.80
60240;BME280;46102;39.012;-7.064;2023-06-10T02:35:25;98280.75;;;18.38;83.68
60240;BME280;46102;39.012;-7.064;2023-06-10T02:37:27;98287.53;;;18.41;83.54
60240;BME280;46102;39.012;-7.064;2023-06-10T02:39:29;98292.66;;;18.39;83.69
60240;BME280;46102;39.012;-7.064;2023-06-10T02:41:30;98290.63;;;18.36;83.70
60240;BME280;46102;39.012;-7.064;2023-06-10T02:43:33;98295.38;;;18.35;83.93
60240;BME280;46102;39.012;-7.064;2023-06-10T02:45:34;98296.19;;;18.36;83.99
60240;BME280;46102;39.012;-7.064;2023-06-10T02:47:37;98300.94;;;18.35;84.08
60240;BME280;46102;39.012;-7.064;2023-06-10T02:49:41;98297.75;;;18.33;84.24
60240;BME280;46102;39.012;-7.064;2023-06-10T02:51:44;98301.25;;;18.30;84.70
60240;BME280;46102;39.012;-7.064;2023-06-10T02:53:45;98305.94;;;18.26;85.12
60240;BME280;46102;39.012;-7.064;2023-06-10T02:55:47;98292.38;;;18.21;85.48
60240;BME280;46102;39.012;-7.064;2023-06-10T02:57:50;98295.94;;;18.18;85.97
60240;BME280;46102;39.012;-7.064;2023-06-10T02:59:53;98292.75;;;18.19;85.96
60240;BME280;46102;39.012;-7.064;2023-06-10T03:01:55;98291.66;;;18.24;86.02
60240;BME280;46102;39.012;-7.064;2023-06-10T03:03:56;98295.69;;;18.30;85.53
60240;BME280;46102;39.012;-7.064;2023-06-10T03:05:57;98299.59;;;18.25;85.56
60240;BME280;46102;39.012;-7.064;2023-06-10T03:08:00;98294.44;;;18.24;85.55
60240;BME280;46102;39.012;-7.064;2023-06-10T03:10:01;98290.47;;;18.25;85.65
60240;BME280;46102;39.012;-7.064;2023-06-10T03:12:03;98296.28;;;18.16;85.99
60240;BME280;46102;39.012;-7.064;2023-06-10T03:14:08;98297.41;;;18.12;86.46
60240;BME280;46102;39.012;-7.064;2023-06-10T03:16:09;98305.28;;;18.06;86.66
60240;BME280;46102;39.012;-7.064;2023-06-10T03:21:22;98300.41;;;17.99;87.28
60240;BME280;46102;39.012;-7.064;2023-06-10T03:23:23;98294.03;;;17.99;87.31
60240;BME280;46102;39.012;-7.064;2023-06-10T03:25:25;98296.81;;;17.99;87.69
60240;BME280;46102;39.012;-7.064;2023-06-10T03:27:27;98290.91;;;18.00;87.56
60240;BME280;46102;39.012;-7.064;2023-06-10T03:29:32;98290.53;;;18.02;87.65
60240;BME280;46102;39.012;-7.064;2023-06-10T03:31:33;98297.31;;;18.04;87.57
60240;BME280;46102;39.012;-7.064;2023-06-10T03:33:36;98305.19;;;18.02;87.61
60240;BME280;46102;39.012;-7.064;2023-06-10T03:35:37;98305.53;;;17.97;88.13
60240;BME280;46102;39.012;-7.064;2023-06-10T03:37:39;98306.25;;;17.94;88.33
60240;BME280;46102;39.012;-7.064;2023-06-10T03:39:40;98305.09;;;17.95;88.66
60240;BME280;46102;39.012;-7.064;2023-06-10T03:41:42;98311.06;;;17.97;88.83
60240;BME280;46102;39.012;-7.064;2023-06-10T03:43:44;98316.91;;;17.92;89.24
60240;BME280;46102;39.012;-7.064;2023-06-10T03:45:47;98311.75;;;17.91;89.39
60240;BME280;46102;39.012;-7.064;2023-06-10T03:47:50;98302.66;;;17.90;89.72
60240;BME280;46102;39.012;-7.064;2023-06-10T03:49:55;98307.00;;;17.91;89.99
60240;BME280;46102;39.012;-7.064;2023-06-10T03:51:57;98305.41;;;17.90;90.27
60240;BME280;46102;39.012;-7.064;2023-06-10T03:53:58;98312.19;;;17.93;89.93
60240;BME280;46102;39.012;-7.064;2023-06-10T03:55:59;98303.88;;;17.93;89.97
60240;BME280;46102;39.012;-7.064;2023-06-10T03:58:01;98302.69;;;17.94;90.02
60240;BME280;46102;39.012;-7.064;2023-06-10T04:00:02;98303.13;;;17.96;89.83
60240;BME280;46102;39.012;-7.064;2023-06-10T04:02:15;98295.66;;;18.00;89.65
60240;BME280;46102;39.012;-7.064;2023-06-10T04:04:18;98293.31;;;18.02;89.49
60240;BME280;46102;39.012;-7.064;2023-06-10T04:06:20;98288.56;;;18.02;89.36
60240;BME280;46102;39.012;-7.064;2023-06-10T04:08:23;98292.50;;;18.01;88.92
60240;BME280;46102;39.012;-7.064;2023-06-10T04:10:23;98288.91;;;18.01;88.89
60240;BME280;46102;39.012;-7.064;2023-06-10T04:12:24;98299.59;;;17.99;89.20
60240;BME280;46102;39.012;-7.064;2023-06-10T04:14:25;98301.19;;;18.00;89.22
60240;BME280;46102;39.012;-7.064;2023-06-10T04:16:26;98302.00;;;18.00;89.04
60240;BME280;46102;39.012;-7.064;2023-06-10T04:18:27;98304.78;;;18.00;89.02
60240;BME280;46102;39.012;-7.064;2023-06-10T04:20:31;98303.19;;;17.99;88.98
60240;BME280;46102;39.012;-7.064;2023-06-10T04:22:32;98310.69;;;17.99;88.92
60240;BME280;46102;39.012;-7.064;2023-06-10T04:24:33;98311.44;;;17.96;89.32
60240;BME280;46102;39.012;-7.064;2023-06-10T04:26:37;98311.81;;;17.94;89.42
60240;BME280;46102;39.012;-7.064;2023-06-10T04:28:39;98313.78;;;17.94;89.65
60240;BME280;46102;39.012;-7.064;2023-06-10T04:30:40;98308.66;;;17.96;89.71
60240;BME280;46102;39.012;-7.064;2023-06-10T04:32:42;98313.03;;;17.97;89.80
60240;BME280;46102;39.012;-7.064;2023-06-10T04:34:48;98310.69;;;17.99;89.61
60240;BME280;46102;39.012;-7.064;2023-06-10T04:36:51;98320.63;;;18.00;89.73
60240;BME280;46102;39.012;-7.064;2023-06-10T04:38:52;98321.41;;;18.00;89.67
60240;BME280;46102;39.012;-7.064;2023-06-10T04:40:53;98324.19;;;18.00;89.73
60240;BME280;46102;39.012;-7.064;2023-06-10T04:42:56;98326.50;;;17.95;90.09
60240;BME280;46102;39.012;-7.064;2023-06-10T04:44:57;98326.88;;;17.93;90.23
60240;BME280;46102;39.012;-7.064;2023-06-10T04:46:59;98336.78;;;17.94;90.37
60240;BME280;46102;39.012;-7.064;2023-06-10T04:48:59;98341.16;;;17.95;90.31
60240;BME280;46102;39.012;-7.064;2023-06-10T04:51:00;98341.16;;;17.95;90.19
60240;BME280;46102;39.012;-7.064;2023-06-10T04:53:01;98347.44;;;17.92;90.36
60240;BME280;46102;39.012;-7.064;2023-06-10T04:55:06;98344.66;;;17.92;90.50
60240;BME280;46102;39.012;-7.064;2023-06-10T04:57:07;98340.78;;;17.97;90.72
60240;BME280;46102;39.012;-7.064;2023-06-10T04:59:08;98341.97;;;17.96;90.79
60240;BME280;46102;39.012;-7.064;2023-06-10T05:01:09;98348.28;;;17.93;90.60
60240;BME280;46102;39.012;-7.064;2023-06-10T05:03:10;98352.19;;;17.92;90.83
60240;BME280;46102;39.012;-7.064;2023-06-10T05:05:10;98354.19;;;17.91;90.81
60240;BME280;46102;39.012;-7.064;2023-06-10T05:07:11;98343.88;;;17.92;90.84
60240;BME280;46102;39.012;-7.064;2023-06-10T05:09:12;98354.63;;;17.93;91.07
60240;BME280;46102;39.012;-7.064;2023-06-10T05:11:13;98348.69;;;17.95;90.48
60240;BME280;46102;39.012;-7.064;2023-06-10T05:13:14;98347.88;;;17.94;90.68
60240;BME280;46102;39.012;-7.064;2023-06-10T05:15:15;98348.81;;;18.02;89.57
60240;BME280;46102;39.012;-7.064;2023-06-10T05:17:15;98354.25;;;17.95;90.40
60240;BME280;46102;39.012;-7.064;2023-06-10T05:19:16;98356.59;;;17.93;90.46
60240;BME280;46102;39.012;-7.064;2023-06-10T05:21:18;98349.09;;;17.97;90.16
60240;BME280;46102;39.012;-7.064;2023-06-10T05:23:18;98350.41;;;18.03;89.97
60240;BME280;46102;39.012;-7.064;2023-06-10T05:25:19;98357.06;;;17.98;90.22
60240;BME280;46102;39.012;-7.064;2023-06-10T05:27:20;98360.28;;;18.00;90.21
60240;BME280;46102;39.012;-7.064;2023-06-10T05:29:22;98357.44;;;17.97;90.18
60240;BME280;46102;39.012;-7.064;2023-06-10T05:31:23;98362.94;;;17.93;90.40
60240;BME280;46102;39.012;-7.064;2023-06-10T05:33:24;98353.00;;;17.92;90.66
60240;BME280;46102;39.012;-7.064;2023-06-10T05:35:25;98361.31;;;17.92;90.90
60240;BME280;46102;39.012;-7.064;2023-06-10T05:37:25;98349.81;;;17.90;91.01
60240;BME280;46102;39.012;-7.064;2023-06-10T05:39:26;98352.59;;;17.90;91.08
60240;BME280;46102;39.012;-7.064;2023-06-10T05:41:27;98358.94;;;17.91;91.13
60240;BME280;46102;39.012;-7.064;2023-06-10T05:43:28;98358.19;;;17.94;91.13
60240;BME280;46102;39.012;-7.064;2023-06-10T05:45:29;98353.84;;;17.96;90.88
60240;BME280;46102;39.012;-7.064;2023-06-10T05:47:29;98355.47;;;17.97;90.71
60240;BME280;46102;39.012;-7.064;2023-06-10T05:49:30;98355.91;;;17.99;90.54
60240;BME280;46102;39.012;-7.064;2023-06-10T05:51:31;98361.06;;;18.01;90.44
60240;BME280;46102;39.012;-7.064;2023-06-10T05:53:32;98363.13;;;18.04;90.18
60240;BME280;46102;39.012;-7.064;2023-06-10T05:55:33;98366.38;;;18.09;90.02
60240;BME280;46102;39.012;-7.064;2023-06-10T05:57:34;98371.91;;;18.09;89.99
60240;BME280;46102;39.012;-7.064;2023-06-10T05:59:34;98365.31;;;18.18;89.67
60240;BME280;46102;39.012;-7.064;2023-06-10T06:01:35;98364.63;;;18.24;89.08
60240;BME280;46102;39.012;-7.064;2023-06-10T06:03:36;98378.94;;;18.26;88.96
60240;BME280;46102;39.012;-7.064;2023-06-10T06:05:37;98375.41;;;18.29;88.78
60240;BME280;46102;39.012;-7.064;2023-06-10T06:07:38;98373.50;;;18.34;88.74
60240;BME280;46102;39.012;-7.064;2023-06-10T06:09:39;98373.53;;;18.37;88.29
60240;BME280;46102;39.012;-7.064;2023-06-10T06:11:40;98375.94;;;18.39;88.18
60240;BME280;46102;39.012;-7.064;2023-06-10T06:13:41;98375.25;;;18.45;87.84
60240;BME280;46102;39.012;-7.064;2023-06-10T06:15:42;98382.13;;;18.55;87.55
60240;BME280;46102;39.012;-7.064;2023-06-10T06:17:43;98377.94;;;18.65;86.84
60240;BME280;46102;39.012;-7.064;2023-06-10T06:19:44;98380.72;;;18.65;86.60
60240;BME280;46102;39.012;-7.064;2023-06-10T06:21:45;98377.59;;;18.70;86.30
60240;BME280;46102;39.012;-7.064;2023-06-10T06:23:46;98369.44;;;18.81;85.86
60240;BME280;46102;39.012;-7.064;2023-06-10T06:25:47;98383.00;;;18.86;85.09
60240;BME280;46102;39.012;-7.064;2023-06-10T06:27:47;98376.22;;;18.83;84.92
60240;BME280;46102;39.012;-7.064;2023-06-10T06:29:48;98380.59;;;18.84;84.98
60240;BME280;46102;39.012;-7.064;2023-06-10T06:31:49;98377.94;;;18.91;84.54
60240;BME280;46102;39.012;-7.064;2023-06-10T06:33:50;98379.16;;;18.94;84.55
60240;BME280;46102;39.012;-7.064;2023-06-10T06:35:51;98378.88;;;19.03;84.14
60240;BME280;46102;39.012;-7.064;2023-06-10T06:37:51;98386.63;;;19.20;83.58
60240;BME280;46102;39.012;-7.064;2023-06-10T06:39:59;98374.13;;;19.41;81.23
60240;BME280;46102;39.012;-7.064;2023-06-10T06:41:59;98372.19;;;19.41;80.08
60240;BME280;46102;39.012;-7.064;2023-06-10T06:44:16;98375.41;;;19.47;79.30
60240;BME280;46102;39.012;-7.064;2023-06-10T06:46:18;98369.41;;;19.45;79.19
60240;BME280;46102;39.012;-7.064;2023-06-10T06:48:19;98368.19;;;19.42;79.00
60240;BME280;46102;39.012;-7.064;2023-06-10T06:50:20;98373.34;;;19.40;78.48
60240;BME280;46102;39.012;-7.064;2023-06-10T06:52:20;98382.47;;;19.37;77.47
60240;BME280;46102;39.012;-7.064;2023-06-10T06:54:22;98374.84;;;19.30;77.56
60240;BME280;46102;39.012;-7.064;2023-06-10T06:56:23;98381.59;;;19.33;77.43
60240;BME280;46102;39.012;-7.064;2023-06-10T06:58:24;98386.09;;;19.41;77.05
60240;BME280;46102;39.012;-7.064;2023-06-10T07:00:25;98388.16;;;19.48;76.56
60240;BME280;46102;39.012;-7.064;2023-06-10T07:02:25;98382.22;;;19.53;75.99
60240;BME280;46102;39.012;-7.064;2023-06-10T07:04:26;98378.75;;;19.63;75.54
60240;BME280;46102;39.012;-7.064;2023-06-10T07:06:27;98391.22;;;19.73;74.76
60240;BME280;46102;39.012;-7.064;2023-06-10T07:08:28;98392.56;;;19.90;74.43
60240;BME280;46102;39.012;-7.064;2023-06-10T07:10:29;98387.13;;;20.04;73.50
60240;BME280;46102;39.012;-7.064;2023-06-10T07:12:30;98397.19;;;20.16;72.53
60240;BME280;46102;39.012;-7.064;2023-06-10T07:14:32;98398.03;;;20.24;72.10
60240;BME280;46102;39.012;-7.064;2023-06-10T07:16:33;98394.16;;;20.35;71.55
60240;BME280;46102;39.012;-7.064;2023-06-10T07:18:34;98401.06;;;20.56;71.20
60240;BME280;46102;39.012;-7.064;2023-06-10T07:20:35;98402.81;;;20.75;70.23
60240;BME280;46102;39.012;-7.064;2023-06-10T07:22:36;98399.72;;;20.91;69.29
60240;BME280;46102;39.012;-7.064;2023-06-10T07:24:36;98402.94;;;20.96;68.24
60240;BME280;46102;39.012;-7.064;2023-06-10T07:26:37;98411.28;;;20.93;68.08
60240;BME280;46102;39.012;-7.064;2023-06-10T07:28:39;98417.22;;;20.91;68.02
60240;BME280;46102;39.012;-7.064;2023-06-10T07:30:40;98409.66;;;20.88;67.42
60240;BME280;46102;39.012;-7.064;2023-06-10T07:32:41;98413.28;;;20.92;67.23
60240;BME280;46102;39.012;-7.064;2023-06-10T07:34:42;98418.81;;;20.85;67.59
60240;BME280;46102;39.012;-7.064;2023-06-10T07:36:42;98408.00;;;20.80;67.90
60240;BME280;46102;39.012;-7.064;2023-06-10T07:38:43;98422.75;;;20.81;68.10
60240;BME280;46102;39.012;-7.064;2023-06-10T07:40:44;98425.16;;;20.82;67.95
60240;BME280;46102;39.012;-7.064;2023-06-10T07:42:45;98427.97;;;20.86;67.47
60240;BME280;46102;39.012;-7.064;2023-06-10T07:44:46;98423.97;;;20.87;67.14
60240;BME280;46102;39.012;-7.064;2023-06-10T07:46:47;98430.75;;;20.89;67.17
60240;BME280;46102;39.012;-7.064;2023-06-10T07:48:48;98429.59;;;20.90;66.86
60240;BME280;46102;39.012;-7.064;2023-06-10T07:50:49;98421.13;;;20.76;66.15
60240;BME280;46102;39.012;-7.064;2023-06-10T07:52:50;98429.03;;;20.67;66.82
60240;BME280;46102;39.012;-7.064;2023-06-10T07:54:51;98421.47;;;20.67;67.19
60240;BME280;46102;39.012;-7.064;2023-06-10T07:56:52;98431.47;;;20.75;66.69
60240;BME280;46102;39.012;-7.064;2023-06-10T07:58:53;98432.34;;;20.87;66.38
60240;BME280;46102;39.012;-7.064;2023-06-10T08:00:54;98435.22;;;21.05;66.40
60240;BME280;46102;39.012;-7.064;2023-06-10T08:02:55;98430.19;;;21.32;65.75
60240;BME280;46102;39.012;-7.064;2023-06-10T08:04:56;98431.47;;;21.52;64.77
60240;BME280;46102;39.012;-7.064;2023-06-10T08:06:57;98427.16;;;21.69;63.93
60240;BME280;46102;39.012;-7.064;2023-06-10T08:08:57;98430.00;;;21.80;62.87
60240;BME280;46102;39.012;-7.064;2023-06-10T08:10:58;98430.00;;;21.87;62.46
60240;BME280;46102;39.012;-7.064;2023-06-10T08:12:59;98436.00;;;22.00;61.04
60240;BME280;46102;39.012;-7.064;2023-06-10T08:15:00;98438.78;;;21.96;60.53
60240;BME280;46102;39.012;-7.064;2023-06-10T08:17:01;98436.38;;;21.80;60.08
60240;BME280;46102;39.012;-7.064;2023-06-10T08:19:03;98439.56;;;21.75;60.11
60240;BME280;46102;39.012;-7.064;2023-06-10T08:21:04;98437.97;;;21.78;59.45
60240;BME280;46102;39.012;-7.064;2023-06-10T08:23:05;98438.78;;;21.82;59.15
60240;BME280;46102;39.012;-7.064;2023-06-10T08:25:07;98445.56;;;21.85;59.10
60240;BME280;46102;39.012;-7.064;2023-06-10T08:27:08;98439.16;;;21.88;58.92
60240;BME280;46102;39.012;-7.064;2023-06-10T08:29:11;98442.75;;;21.85;59.71
60240;BME280;46102;39.012;-7.064;2023-06-10T08:31:12;98444.78;;;21.91;59.38
60240;BME280;46102;39.012;-7.064;2023-06-10T08:33:13;98448.38;;;21.95;59.49
60240;BME280;46102;39.012;-7.064;2023-06-10T08:35:14;98441.59;;;22.00;59.20
60240;BME280;46102;39.012;-7.064;2023-06-10T08:37:14;98446.47;;;22.32;58.74
60240;BME280;46102;39.012;-7.064;2023-06-10T08:39:15;98444.88;;;22.45;58.04
60240;BME280;46102;39.012;-7.064;2023-06-10T08:41:17;98443.66;;;22.53;58.03
60240;BME280;46102;39.012;-7.064;2023-06-10T08:45:30;98439.19;;;22.99;56.67
60240;BME280;46102;39.012;-7.064;2023-06-10T08:47:34;98433.94;;;23.30;55.67
60240;BME280;46102;39.012;-7.064;2023-06-10T08:49:42;98433.84;;;23.51;54.54
60240;BME280;46102;39.012;-7.064;2023-06-10T08:51:44;98441.00;;;23.59;54.06
60240;BME280;46102;39.012;-7.064;2023-06-10T08:53:52;98433.78;;;23.69;53.62
60240;BME280;46102;39.012;-7.064;2023-06-10T08:55:55;98430.06;;;23.94;53.32
60240;BME280;46102;39.012;-7.064;2023-06-10T08:58:00;98439.00;;;24.30;52.57
60240;BME280;46102;39.012;-7.064;2023-06-10T09:00:02;98428.25;;;24.73;51.95
60240;BME280;46102;39.012;-7.064;2023-06-10T09:02:04;98421.31;;;24.85;50.26
60240;BME280;46102;39.012;-7.064;2023-06-10T09:04:05;98428.25;;;24.70;50.72
60240;BME280;46102;39.012;-7.064;2023-06-10T09:06:07;98431.25;;;24.45;51.31
60240;BME280;46102;39.012;-7.064;2023-06-10T09:08:08;98431.97;;;24.63;51.35
60240;BME280;46102;39.012;-7.064;2023-06-10T09:10:10;98438.50;;;24.87;50.24
60240;BME280;46102;39.012;-7.064;2023-06-10T09:12:13;98432.41;;;24.96;49.49
60240;BME280;46102;39.012;-7.064;2023-06-10T09:14:15;98429.63;;;24.92;49.18
60240;BME280;46102;39.012;-7.064;2023-06-10T09:16:17;98438.19;;;24.82;48.62
60240;BME280;46102;39.012;-7.064;2023-06-10T09:18:17;98432.56;;;24.82;49.24
60240;BME280;46102;39.012;-7.064;2023-06-10T09:20:18;98434.38;;;24.99;49.44
60240;BME280;46102;39.012;-7.064;2023-06-10T09:22:19;98433.56;;;25.02;48.79
60240;BME280;46102;39.012;-7.064;2023-06-10T09:24:24;98434.38;;;24.99;48.78
60240;BME280;46102;39.012;-7.064;2023-06-10T09:26:28;98437.19;;;24.99;48.76
60240;BME280;46102;39.012;-7.064;2023-06-10T09:28:30;98429.91;;;25.05;48.05
60240;BME280;46102;39.012;-7.064;2023-06-10T09:30:33;98431.78;;;25.19;47.35
60240;BME280;46102;39.012;-7.064;2023-06-10T09:32:38;98435.94;;;25.42;47.34
60240;BME280;46102;39.012;-7.064;2023-06-10T09:34:39;98432.59;;;25.54;46.72
60240;BME280;46102;39.012;-7.064;2023-06-10T09:36:41;98433.03;;;25.80;45.77
60240;BME280;46102;39.012;-7.064;2023-06-10T09:38:41;98425.88;;;26.06;45.23
60240;BME280;46102;39.012;-7.064;2023-06-10T09:40:50;98433.19;;;26.27;45.04
60240;BME280;46102;39.012;-7.064;2023-06-10T09:42:56;98429.31;;;26.17;44.34
60240;BME280;46102;39.012;-7.064;2023-06-10T09:44:57;98435.84;;;26.10;44.17
60240;BME280;46102;39.012;-7.064;2023-06-10T09:46:58;98435.13;;;26.03;44.70
60240;BME280;46102;39.012;-7.064;2023-06-10T09:48:59;98434.34;;;26.02;43.74
60240;BME280;46102;39.012;-7.064;2023-06-10T09:51:00;98432.06;;;25.93;42.69
60240;BME280;46102;39.012;-7.064;2023-06-10T09:53:01;98430.91;;;25.91;41.85
60240;BME280;46102;39.012;-7.064;2023-06-10T09:55:08;98435.34;;;25.88;42.32
60240;BME280;46102;39.012;-7.064;2023-06-10T09:57:09;98434.34;;;26.02;41.88
60240;BME280;46102;39.012;-7.064;2023-06-10T09:59:10;98430.31;;;26.54;40.96
60240;BME280;46102;39.012;-7.064;2023-06-10T10:01:13;98430.88;;;26.92;39.13
60240;BME280;46102;39.012;-7.064;2023-06-10T10:03:22;98437.03;;;27.07;39.04
60240;BME280;46102;39.012;-7.064;2023-06-10T10:05:23;98425.09;;;27.43;38.76
60240;BME280;46102;39.012;-7.064;2023-06-10T10:07:24;98429.63;;;27.57;37.70
60240;BME280;46102;39.012;-7.064;2023-06-10T10:09:25;98428.91;;;27.53;36.72
60240;BME280;46102;39.012;-7.064;2023-06-10T10:11:27;98433.31;;;27.54;35.87
60240;BME280;46102;39.012;-7.064;2023-06-10T10:13:28;98433.91;;;27.65;36.12
60240;BME280;46102;39.012;-7.064;2023-06-10T10:15:31;98424.56;;;28.05;35.64
60240;BME280;46102;39.012;-7.064;2023-06-10T10:17:34;98431.28;;;28.27;35.20
60240;BME280;46102;39.012;-7.064;2023-06-10T10:19:42;98420.75;;;28.48;34.95
60240;BME280;46102;39.012;-7.064;2023-06-10T10:21:52;98420.97;;;28.37;35.35
60240;BME280;46102;39.012;-7.064;2023-06-10T10:25:58;98420.19;;;28.53;35.71
60240;BME280;46102;39.012;-7.064;2023-06-10T10:28:11;98418.38;;;28.62;36.00
60240;BME280;46102;39.012;-7.064;2023-06-10T10:30:14;98421.56;;;28.94;34.80
60240;BME280;46102;39.012;-7.064;2023-06-10T10:32:16;98413.28;;;28.86;35.62
60240;BME280;46102;39.012;-7.064;2023-06-10T10:34:21;98413.22;;;28.57;35.99
60240;BME280;46102;39.012;-7.064;2023-06-10T10:36:25;98412.53;;;28.70;35.66
60240;BME280;46102;39.012;-7.064;2023-06-10T10:38:28;98409.09;;;28.29;36.38
60240;BME280;46102;39.012;-7.064;2023-06-10T10:40:29;98413.69;;;28.39;36.58
60240;BME280;46102;39.012;-7.064;2023-06-10T10:42:30;98407.84;;;28.47;36.19
60240;BME280;46102;39.012;-7.064;2023-06-10T10:44:32;98406.78;;;28.40;36.25
60240;BME280;46102;39.012;-7.064;2023-06-10T10:46:43;98416.72;;;27.96;37.13